sensor_id;sensor_type;location;lat;lon;timestamp;temperature;humidity
17697;DHT22;8967;47.984;7.842;2023-02-15T00:01:47;2.40;99.90
17697;DHT22;8967;47.984;7.842;2023-02-15T00:04:15;2.40;99.90
17697;DHT22;8967;47.984;7.842;2023-02-15T00:06:55;2.30;99.90
17697;DHT22;8967;47.984;7.842;2023-02-15T00:09:22;2.30;99.90
17697;DHT22;8967;47.984;7.842;2023-02-15T00:11:48;2.20;99.90
17697;DHT22;8967;47.984;7.842;2023-02-15T00:14:19;2.20;99.90
17697;DHT22;8967;47.984;7.842;2023-02-15T00:16:48;2.10;99.90
17697;DHT22;8967;47.984;7.842;2023-02-15T00:19:17;2.00;99.90
17697;DHT22;8967;47.984;7.842;2023-02-15T00:21:47;2.00;99.90
17697;DHT22;8967;47.984;7.842;2023-02-15T00:24:18;2.00;99.90
17697;DHT22;8967;47.984;7.842;2023-02-15T00:26:46;1.90;99.90
17697;DHT22;8967;47.984;7.842;2023-02-15T00:29:15;1.90;99.90
17697;DHT22;8967;47.984;7.842;2023-02-15T00:31:44;1.90;99.90
17697;DHT22;8967;47.984;7.842;2023-02-15T00:34:13;1.90;99.90
17697;DHT22;8967;47.984;7.842;2023-02-15T00:36:41;1.80;99.90
17697;DHT22;8967;47.984;7.842;2023-02-15T00:39:09;1.80;99.90
17697;DHT22;8967;47.984;7.842;2023-02-15T00:41:36;1.80;99.90
17697;DHT22;8967;47.984;7.842;2023-02-15T00:44:05;1.80;99.90
17697;DHT22;8967;47.984;7.842;2023-02-15T00:46:33;1.80;99.90
17697;DHT22;8967;47.984;7.842;2023-02-15T00:49:02;1.80;99.90
17697;DHT22;8967;47.984;7.842;2023-02-15T00:51:31;1.80;99.90
17697;DHT22;8967;47.984;7.842;2023-02-15T00:53:58;1.80;99.90
17697;DHT22;8967;47.984;7.842;2023-02-15T00:56:25;1.80;99.90
17697;DHT22;8967;47.984;7.842;2023-02-15T00:58:53;1.80;99.90
17697;DHT22;8967;47.984;7.842;2023-02-15T01:01:21;1.80;99.90
17697;DHT22;8967;47.984;7.842;2023-02-15T01:03:50;1.80;99.90
17697;DHT22;8967;47.984;7.842;2023-02-15T01:06:18;1.80;99.90
17697;DHT22;8967;47.984;7.842;2023-02-15T01:08:46;1.80;99.90
17697;DHT22;8967;47.984;7.842;2023-02-15T01:11:16;1.70;99.90
17697;DHT22;8967;47.984;7.842;2023-02-15T01:13:48;1.70;99.90
17697;DHT22;8967;47.984;7.842;2023-02-15T01:16:15;1.70;99.90
17697;DHT22;8967;47.984;7.842;2023-02-15T01:18:42;1.70;99.90
17697;DHT22;8967;47.984;7.842;2023-02-15T01:21:11;1.70;99.90
17697;DHT22;8967;47.984;7.842;2023-02-15T01:23:41;1.70;99.90
17697;DHT22;8967;47.984;7.842;2023-02-15T01:26:08;1.70;99.90
17697;DHT22;8967;47.984;7.842;2023-02-15T01:28:36;1.70;99.90
17697;DHT22;8967;47.984;7.842;2023-02-15T01:31:07;1.70;99.90
17697;DHT22;8967;47.984;7.842;2023-02-15T01:33:35;1.70;99.90
17697;DHT22;8967;47.984;7.842;2023-02-15T01:36:03;1.70;99.90
17697;DHT22;8967;47.984;7.842;2023-02-15T01:38:31;1.70;99.90
17697;DHT22;8967;47.984;7.842;2023-02-15T01:41:00;1.70;99.90
17697;DHT22;8967;47.984;7.842;2023-02-15T01:43:46;1.70;99.90
17697;DHT22;8967;47.984;7.842;2023-02-15T01:46:16;1.70;99.90
17697;DHT22;8967;47.984;7.842;2023-02-15T01:48:47;1.70;99.90
17697;DHT22;8967;47.984;7.842;2023-02-15T01:51:17;1.70;99.90
17697;DHT22;8967;47.984;7.842;2023-02-15T01:53:48;1.80;99.90
17697;DHT22;8967;47.984;7.842;2023-02-15T01:56:19;1.80;99.90
17697;DHT22;8967;47.984;7.842;2023-02-15T01:58:49;1.80;99.90
17697;DHT22;8967;47.984;7.842;2023-02-15T02:01:18;1.80;99.90
17697;DHT22;8967;47.984;7.842;2023-02-15T02:03:53;1.80;99.90
17697;DHT22;8967;47.984;7.842;2023-02-15T02:06:23;1.80;99.90
17697;DHT22;8967;47.984;7.842;2023-02-15T02:08:52;1.80;99.90
17697;DHT22;8967;47.984;7.842;2023-02-15T02:11:21;1.80;99.90
17697;DHT22;8967;47.984;7.842;2023-02-15T02:13:50;1.80;99.90
17697;DHT22;8967;47.984;7.842;2023-02-15T02:16:22;1.80;99.90
17697;DHT22;8967;47.984;7.842;2023-02-15T02:19:06;1.90;99.90
17697;DHT22;8967;47.984;7.842;2023-02-15T02:21:57;1.90;99.90
17697;DHT22;8967;47.984;7.842;2023-02-15T02:24:56;1.80;99.90
17697;DHT22;8967;47.984;7.842;2023-02-15T02:27:37;1.90;99.90
17697;DHT22;8967;47.984;7.842;2023-02-15T02:30:41;1.80;99.90
17697;DHT22;8967;47.984;7.842;2023-02-15T02:33:39;1.80;99.90
17697;DHT22;8967;47.984;7.842;2023-02-15T02:36:18;1.80;99.90
17697;DHT22;8967;47.984;7.842;2023-02-15T02:39:12;1.80;99.90
17697;DHT22;8967;47.984;7.842;2023-02-15T02:41:47;1.80;99.90
17697;DHT22;8967;47.984;7.842;2023-02-15T02:44:22;1.80;99.90
17697;DHT22;8967;47.984;7.842;2023-02-15T02:46:57;1.80;99.90
17697;DHT22;8967;47.984;7.842;2023-02-15T02:49:33;1.80;99.90
17697;DHT22;8967;47.984;7.842;2023-02-15T02:52:02;1.90;99.90
17697;DHT22;8967;47.984;7.842;2023-02-15T02:54:33;1.90;99.90
17697;DHT22;8967;47.984;7.842;2023-02-15T02:57:04;1.90;99.90
17697;DHT22;8967;47.984;7.842;2023-02-15T02:59:37;1.90;99.90
17697;DHT22;8967;47.984;7.842;2023-02-15T03:02:08;2.00;99.90
17697;DHT22;8967;47.984;7.842;2023-02-15T03:04:42;1.90;99.90
17697;DHT22;8967;47.984;7.842;2023-02-15T03:07:12;2.00;99.90
17697;DHT22;8967;47.984;7.842;2023-02-15T03:09:50;2.00;99.90
17697;DHT22;8967;47.984;7.842;2023-02-15T03:12:20;2.00;99.90
17697;DHT22;8967;47.984;7.842;2023-02-15T03:14:49;2.00;99.90
17697;DHT22;8967;47.984;7.842;2023-02-15T03:17:20;2.00;99.90
17697;DHT22;8967;47.984;7.842;2023-02-15T03:19:51;2.00;99.90
17697;DHT22;8967;47.984;7.842;2023-02-15T03:22:24;2.00;99.90
17697;DHT22;8967;47.984;7.842;2023-02-15T03:24:57;2.00;99.90
17697;DHT22;8967;47.984;7.842;2023-02-15T03:27:27;1.90;99.90
17697;DHT22;8967;47.984;7.842;2023-02-15T03:30:02;1.90;99.90
17697;DHT22;8967;47.984;7.842;2023-02-15T03:32:32;1.90;99.90
17697;DHT22;8967;47.984;7.842;2023-02-15T03:35:02;2.00;99.90
17697;DHT22;8967;47.984;7.842;2023-02-15T03:37:33;2.00;99.90
17697;DHT22;8967;47.984;7.842;2023-02-15T03:40:06;2.00;99.90
17697;DHT22;8967;47.984;7.842;2023-02-15T03:42:51;2.00;99.90
17697;DHT22;8967;47.984;7.842;2023-02-15T03:45:24;2.00;99.90
17697;DHT22;8967;47.984;7.842;2023-02-15T03:47:52;2.00;99.90
17697;DHT22;8967;47.984;7.842;2023-02-15T03:50:26;2.00;99.90
17697;DHT22;8967;47.984;7.842;2023-02-15T03:53:14;2.00;99.90
17697;DHT22;8967;47.984;7.842;2023-02-15T03:55:42;2.00;99.90
17697;DHT22;8967;47.984;7.842;2023-02-15T03:58:12;2.00;99.90
17697;DHT22;8967;47.984;7.842;2023-02-15T04:00:58;2.00;99.90
17697;DHT22;8967;47.984;7.842;2023-02-15T04:03:46;2.00;99.90
17697;DHT22;8967;47.984;7.842;2023-02-15T04:06:20;1.90;99.90
17697;DHT22;8967;47.984;7.842;2023-02-15T04:08:47;1.90;99.90
17697;DHT22;8967;47.984;7.842;2023-02-15T04:11:31;2.00;99.90
17697;DHT22;8967;47.984;7.842;2023-02-15T04:13:58;2.00;99.90
17697;DHT22;8967;47.984;7.842;2023-02-15T04:16:45;2.00;99.90
17697;DHT22;8967;47.984;7.842;2023-02-15T04:19:11;2.00;99.90
17697;DHT22;8967;47.984;7.842;2023-02-15T04:21:56;2.00;99.90
17697;DHT22;8967;47.984;7.842;2023-02-15T04:24:41;2.00;99.90
17697;DHT22;8967;47.984;7.842;2023-02-15T04:27:25;2.00;99.90
17697;DHT22;8967;47.984;7.842;2023-02-15T04:29:52;2.00;99.90
17697;DHT22;8967;47.984;7.842;2023-02-15T04:32:19;2.00;99.90
17697;DHT22;8967;47.984;7.842;2023-02-15T04:34:46;2.00;99.90
17697;DHT22;8967;47.984;7.842;2023-02-15T04:37:14;1.90;99.90
17697;DHT22;8967;47.984;7.842;2023-02-15T04:39:41;1.90;99.90
17697;DHT22;8967;47.984;7.842;2023-02-15T04:42:08;1.90;99.90
17697;DHT22;8967;47.984;7.842;2023-02-15T04:44:35;1.90;99.90
17697;DHT22;8967;47.984;7.842;2023-02-15T04:47:02;1.90;99.90
17697;DHT22;8967;47.984;7.842;2023-02-15T04:49:28;1.80;99.90
17697;DHT22;8967;47.984;7.842;2023-02-15T04:51:58;1.80;99.90
17697;DHT22;8967;47.984;7.842;2023-02-15T04:54:26;1.80;99.90
17697;DHT22;8967;47.984;7.842;2023-02-15T04:56:53;1.80;99.90
17697;DHT22;8967;47.984;7.842;2023-02-15T04:59:22;1.80;99.90
17697;DHT22;8967;47.984;7.842;2023-02-15T05:01:49;1.80;99.90
17697;DHT22;8967;47.984;7.842;2023-02-15T05:04:16;1.80;99.90
17697;DHT22;8967;47.984;7.842;2023-02-15T05:06:43;1.80;99.90
17697;DHT22;8967;47.984;7.842;2023-02-15T05:09:10;1.80;99.90
17697;DHT22;8967;47.984;7.842;2023-02-15T05:11:39;1.80;99.90
17697;DHT22;8967;47.984;7.842;2023-02-15T05:14:06;1.80;99.90
17697;DHT22;8967;47.984;7.842;2023-02-15T05:16:33;1.80;99.90
17697;DHT22;8967;47.984;7.842;2023-02-15T05:19:00;1.80;99.90
17697;DHT22;8967;47.984;7.842;2023-02-15T05:21:27;1.80;99.90
17697;DHT22;8967;47.984;7.842;2023-02-15T05:23:54;1.90;99.90
17697;DHT22;8967;47.984;7.842;2023-02-15T05:26:22;1.80;99.90
17697;DHT22;8967;47.984;7.842;2023-02-15T05:29:08;1.90;99.90
17697;DHT22;8967;47.984;7.842;2023-02-15T05:31:36;1.90;99.90
17697;DHT22;8967;47.984;7.842;2023-02-15T05:34:03;1.90;99.90
17697;DHT22;8967;47.984;7.842;2023-02-15T05:36:32;1.90;99.90
17697;DHT22;8967;47.984;7.842;2023-02-15T05:38:59;1.90;99.90
17697;DHT22;8967;47.984;7.842;2023-02-15T05:41:26;1.90;99.90
17697;DHT22;8967;47.984;7.842;2023-02-15T05:43:55;1.90;99.90
17697;DHT22;8967;47.984;7.842;2023-02-15T05:46:25;1.90;99.90
17697;DHT22;8967;47.984;7.842;2023-02-15T05:48:52;1.90;99.90
17697;DHT22;8967;47.984;7.842;2023-02-15T05:51:19;1.90;99.90
17697;DHT22;8967;47.984;7.842;2023-02-15T05:53:46;1.90;99.90
17697;DHT22;8967;47.984;7.842;2023-02-15T05:56:12;1.80;99.90
17697;DHT22;8967;47.984;7.842;2023-02-15T05:58:41;1.80;99.90
17697;DHT22;8967;47.984;7.842;2023-02-15T06:01:08;1.80;99.90
17697;DHT22;8967;47.984;7.842;2023-02-15T06:03:39;1.70;99.90
17697;DHT22;8967;47.984;7.842;2023-02-15T06:06:06;1.70;99.90
17697;DHT22;8967;47.984;7.842;2023-02-15T06:08:34;1.70;99.90
17697;DHT22;8967;47.984;7.842;2023-02-15T06:11:02;1.60;99.90
17697;DHT22;8967;47.984;7.842;2023-02-15T06:13:29;1.60;99.90
17697;DHT22;8967;47.984;7.842;2023-02-15T06:15:56;1.60;99.90
17697;DHT22;8967;47.984;7.842;2023-02-15T06:18:23;1.60;99.90
17697;DHT22;8967;47.984;7.842;2023-02-15T06:20:51;1.60;99.90
17697;DHT22;8967;47.984;7.842;2023-02-15T06:23:21;1.50;99.90
17697;DHT22;8967;47.984;7.842;2023-02-15T06:25:50;1.50;99.90
17697;DHT22;8967;47.984;7.842;2023-02-15T06:28:17;1.50;99.90
17697;DHT22;8967;47.984;7.842;2023-02-15T06:30:44;1.50;99.90
17697;DHT22;8967;47.984;7.842;2023-02-15T06:33:11;1.50;99.90
17697;DHT22;8967;47.984;7.842;2023-02-15T06:35:38;1.50;99.90
17697;DHT22;8967;47.984;7.842;2023-02-15T06:38:06;1.50;99.90
17697;DHT22;8967;47.984;7.842;2023-02-15T06:40:35;1.50;99.90
17697;DHT22;8967;47.984;7.842;2023-02-15T06:43:02;1.50;99.90
17697;DHT22;8967;47.984;7.842;2023-02-15T06:45:29;1.50;99.90
17697;DHT22;8967;47.984;7.842;2023-02-15T06:47:56;1.50;99.90
17697;DHT22;8967;47.984;7.842;2023-02-15T06:50:23;1.40;99.90
17697;DHT22;8967;47.984;7.842;2023-02-15T06:52:55;1.40;99.90
17697;DHT22;8967;47.984;7.842;2023-02-15T06:55:24;1.40;99.90
17697;DHT22;8967;47.984;7.842;2023-02-15T06:57:51;1.40;99.90
17697;DHT22;8967;47.984;7.842;2023-02-15T07:00:21;1.40;99.90
17697;DHT22;8967;47.984;7.842;2023-02-15T07:02:53;1.50;99.90
17697;DHT22;8967;47.984;7.842;2023-02-15T07:05:26;1.50;99.90
17697;DHT22;8967;47.984;7.842;2023-02-15T07:07:56;1.50;99.90
17697;DHT22;8967;47.984;7.842;2023-02-15T07:10:24;1.50;99.90
17697;DHT22;8967;47.984;7.842;2023-02-15T07:12:51;1.50;99.90
17697;DHT22;8967;47.984;7.842;2023-02-15T07:15:19;1.50;99.90
17697;DHT22;8967;47.984;7.842;2023-02-15T07:17:47;1.50;99.90
17697;DHT22;8967;47.984;7.842;2023-02-15T07:20:16;1.50;99.90
17697;DHT22;8967;47.984;7.842;2023-02-15T07:22:43;1.50;99.90
17697;DHT22;8967;47.984;7.842;2023-02-15T07:25:11;1.50;99.90
17697;DHT22;8967;47.984;7.842;2023-02-15T07:27:40;1.40;99.90
17697;DHT22;8967;47.984;7.842;2023-02-15T07:30:08;1.40;99.90
17697;DHT22;8967;47.984;7.842;2023-02-15T07:32:36;1.40;99.90
17697;DHT22;8967;47.984;7.842;2023-02-15T07:35:22;1.40;99.90
17697;DHT22;8967;47.984;7.842;2023-02-15T07:37:49;1.40;99.90
17697;DHT22;8967;47.984;7.842;2023-02-15T07:40:27;1.40;99.90
17697;DHT22;8967;47.984;7.842;2023-02-15T07:42:58;1.40;99.90
17697;DHT22;8967;47.984;7.842;2023-02-15T07:45:25;1.40;99.90
17697;DHT22;8967;47.984;7.842;2023-02-15T07:48:10;1.50;99.90
17697;DHT22;8967;47.984;7.842;2023-02-15T07:50:40;1.50;99.90
17697;DHT22;8967;47.984;7.842;2023-02-15T07:53:07;1.50;99.90
17697;DHT22;8967;47.984;7.842;2023-02-15T07:55:34;1.50;99.90
17697;DHT22;8967;47.984;7.842;2023-02-15T07:58:04;1.50;99.90
17697;DHT22;8967;47.984;7.842;2023-02-15T08:00:38;1.50;99.90
17697;DHT22;8967;47.984;7.842;2023-02-15T08:03:19;1.50;99.90
17697;DHT22;8967;47.984;7.842;2023-02-15T08:05:46;1.50;99.90
17697;DHT22;8967;47.984;7.842;2023-02-15T08:08:13;1.50;99.90
17697;DHT22;8967;47.984;7.842;2023-02-15T08:10:58;1.50;99.90
17697;DHT22;8967;47.984;7.842;2023-02-15T08:13:47;1.60;99.90
17697;DHT22;8967;47.984;7.842;2023-02-15T08:16:22;1.60;99.90
17697;DHT22;8967;47.984;7.842;2023-02-15T08:18:50;1.60;99.90
17697;DHT22;8967;47.984;7.842;2023-02-15T08:21:18;1.70;99.90
17697;DHT22;8967;47.984;7.842;2023-02-15T08:23:45;1.80;99.90
17697;DHT22;8967;47.984;7.842;2023-02-15T08:26:12;1.80;99.90
17697;DHT22;8967;47.984;7.842;2023-02-15T08:28:40;1.90;99.90
17697;DHT22;8967;47.984;7.842;2023-02-15T08:31:10;1.90;99.90
17697;DHT22;8967;47.984;7.842;2023-02-15T08:33:39;2.00;99.90
17697;DHT22;8967;47.984;7.842;2023-02-15T08:36:09;2.00;99.90
17697;DHT22;8967;47.984;7.842;2023-02-15T08:38:36;2.00;99.90
17697;DHT22;8967;47.984;7.842;2023-02-15T08:41:11;2.10;99.90
17697;DHT22;8967;47.984;7.842;2023-02-15T08:43:39;2.10;99.90
17697;DHT22;8967;47.984;7.842;2023-02-15T08:46:06;2.20;99.90
17697;DHT22;8967;47.984;7.842;2023-02-15T08:48:34;2.20;99.90
17697;DHT22;8967;47.984;7.842;2023-02-15T08:51:06;2.20;99.90
17697;DHT22;8967;47.984;7.842;2023-02-15T08:53:34;2.30;99.90
17697;DHT22;8967;47.984;7.842;2023-02-15T08:56:00;2.30;99.90
17697;DHT22;8967;47.984;7.842;2023-02-15T08:58:28;2.30;99.90
17697;DHT22;8967;47.984;7.842;2023-02-15T09:00:56;2.30;99.90
17697;DHT22;8967;47.984;7.842;2023-02-15T09:03:23;2.30;99.90
17697;DHT22;8967;47.984;7.842;2023-02-15T09:05:57;2.40;99.90
17697;DHT22;8967;47.984;7.842;2023-02-15T09:08:27;2.40;99.90
17697;DHT22;8967;47.984;7.842;2023-02-15T09:11:03;2.40;99.90
17697;DHT22;8967;47.984;7.842;2023-02-15T09:13:33;2.50;99.90
17697;DHT22;8967;47.984;7.842;2023-02-15T09:16:01;2.50;99.90
17697;DHT22;8967;47.984;7.842;2023-02-15T09:18:30;2.50;99.90
17697;DHT22;8967;47.984;7.842;2023-02-15T09:21:03;2.60;99.90
17697;DHT22;8967;47.984;7.842;2023-02-15T09:23:31;2.60;99.90
17697;DHT22;8967;47.984;7.842;2023-02-15T09:26:02;2.60;99.90
17697;DHT22;8967;47.984;7.842;2023-02-15T09:28:29;2.60;99.90
17697;DHT22;8967;47.984;7.842;2023-02-15T09:30:56;2.70;99.90
17697;DHT22;8967;47.984;7.842;2023-02-15T09:33:23;2.70;99.90
17697;DHT22;8967;47.984;7.842;2023-02-15T09:35:51;2.70;99.90
17697;DHT22;8967;47.984;7.842;2023-02-15T09:38:19;2.70;99.90
17697;DHT22;8967;47.984;7.842;2023-02-15T09:40:52;2.70;99.90
17697;DHT22;8967;47.984;7.842;2023-02-15T09:43:32;2.70;99.90
17697;DHT22;8967;47.984;7.842;2023-02-15T09:46:23;2.70;99.90
17697;DHT22;8967;47.984;7.842;2023-02-15T09:49:00;2.80;99.90
17697;DHT22;8967;47.984;7.842;2023-02-15T09:51:57;2.80;99.90
17697;DHT22;8967;47.984;7.842;2023-02-15T09:54:46;2.80;99.90
17697;DHT22;8967;47.984;7.842;2023-02-15T09:57:23;2.90;99.90
17697;DHT22;8967;47.984;7.842;2023-02-15T10:00:01;2.90;99.90
17697;DHT22;8967;47.984;7.842;2023-02-15T10:02:48;3.00;99.90
17697;DHT22;8967;47.984;7.842;2023-02-15T10:05:25;3.00;99.90
17697;DHT22;8967;47.984;7.842;2023-02-15T10:08:27;3.00;99.90
17697;DHT22;8967;47.984;7.842;2023-02-15T10:11:08;3.10;99.90
17697;DHT22;8967;47.984;7.842;2023-02-15T10:14:03;3.10;99.90
17697;DHT22;8967;47.984;7.842;2023-02-15T10:20:04;3.10;99.90
17697;DHT22;8967;47.984;7.842;2023-02-15T10:22:44;3.10;99.90
17697;DHT22;8967;47.984;7.842;2023-02-15T10:25:20;3.20;99.90
17697;DHT22;8967;47.984;7.842;2023-02-15T10:27:55;3.10;99.90
17697;DHT22;8967;47.984;7.842;2023-02-15T10:30:29;3.10;99.90
17697;DHT22;8967;47.984;7.842;2023-02-15T10:33:01;3.10;99.90
17697;DHT22;8967;47.984;7.842;2023-02-15T10:35:44;3.10;99.90
17697;DHT22;8967;47.984;7.842;2023-02-15T10:38:22;3.10;99.90
17697;DHT22;8967;47.984;7.842;2023-02-15T10:41:01;3.10;99.90
17697;DHT22;8967;47.984;7.842;2023-02-15T10:44:09;3.10;99.90
17697;DHT22;8967;47.984;7.842;2023-02-15T10:46:55;3.10;99.90
17697;DHT22;8967;47.984;7.842;2023-02-15T10:52:41;3.10;99.90
17697;DHT22;8967;47.984;7.842;2023-02-15T10:55:18;3.20;99.90
17697;DHT22;8967;47.984;7.842;2023-02-15T10:57:56;3.20;99.90
17697;DHT22;8967;47.984;7.842;2023-02-15T11:00:32;3.30;99.90
17697;DHT22;8967;47.984;7.842;2023-02-15T11:03:19;3.30;99.90
17697;DHT22;8967;47.984;7.842;2023-02-15T11:06:02;3.40;99.90
17697;DHT22;8967;47.984;7.842;2023-02-15T11:08:34;3.40;99.90
17697;DHT22;8967;47.984;7.842;2023-02-15T11:11:06;3.50;99.90
17697;DHT22;8967;47.984;7.842;2023-02-15T11:13:38;3.50;99.90
17697;DHT22;8967;47.984;7.842;2023-02-15T11:16:11;3.50;99.90
17697;DHT22;8967;47.984;7.842;2023-02-15T11:18:43;3.60;99.90
17697;DHT22;8967;47.984;7.842;2023-02-15T11:21:17;3.60;99.90
17697;DHT22;8967;47.984;7.842;2023-02-15T11:23:59;3.70;99.90
17697;DHT22;8967;47.984;7.842;2023-02-15T11:26:30;3.70;99.90
17697;DHT22;8967;47.984;7.842;2023-02-15T11:29:04;3.70;99.90
17697;DHT22;8967;47.984;7.842;2023-02-15T11:31:43;3.80;99.90
17697;DHT22;8967;47.984;7.842;2023-02-15T11:34:15;3.80;99.90
17697;DHT22;8967;47.984;7.842;2023-02-15T11:36:45;3.90;99.90
17697;DHT22;8967;47.984;7.842;2023-02-15T11:39:16;3.90;99.90
17697;DHT22;8967;47.984;7.842;2023-02-15T11:41:47;4.00;99.90
17697;DHT22;8967;47.984;7.842;2023-02-15T11:44:21;4.00;99.90
17697;DHT22;8967;47.984;7.842;2023-02-15T11:47:02;4.10;99.90
17697;DHT22;8967;47.984;7.842;2023-02-15T11:49:31;4.10;99.90
17697;DHT22;8967;47.984;7.842;2023-02-15T11:52:06;4.20;99.90
17697;DHT22;8967;47.984;7.842;2023-02-15T11:54:37;4.30;99.90
17697;DHT22;8967;47.984;7.842;2023-02-15T11:57:12;4.30;99.90
17697;DHT22;8967;47.984;7.842;2023-02-15T11:59:44;4.30;99.90
17697;DHT22;8967;47.984;7.842;2023-02-15T12:02:18;4.40;99.90
17697;DHT22;8967;47.984;7.842;2023-02-15T12:04:58;4.40;99.90
17697;DHT22;8967;47.984;7.842;2023-02-15T12:07:40;4.50;99.90
17697;DHT22;8967;47.984;7.842;2023-02-15T12:11:15;4.50;99.90
17697;DHT22;8967;47.984;7.842;2023-02-15T12:14:14;4.60;99.90
17697;DHT22;8967;47.984;7.842;2023-02-15T12:16:51;4.60;99.90
17697;DHT22;8967;47.984;7.842;2023-02-15T12:19:42;4.70;99.90
17697;DHT22;8967;47.984;7.842;2023-02-15T12:22:25;4.80;99.90
17697;DHT22;8967;47.984;7.842;2023-02-15T12:24:55;4.80;99.90
17697;DHT22;8967;47.984;7.842;2023-02-15T12:27:26;4.90;99.90
17697;DHT22;8967;47.984;7.842;2023-02-15T12:29:58;4.90;99.90
17697;DHT22;8967;47.984;7.842;2023-02-15T12:32:30;5.00;99.90
17697;DHT22;8967;47.984;7.842;2023-02-15T12:35:02;5.00;99.90
17697;DHT22;8967;47.984;7.842;2023-02-15T12:37:34;5.00;99.90
17697;DHT22;8967;47.984;7.842;2023-02-15T12:40:17;5.00;99.90
17697;DHT22;8967;47.984;7.842;2023-02-15T12:42:45;5.10;99.90
17697;DHT22;8967;47.984;7.842;2023-02-15T12:45:24;5.10;99.90
17697;DHT22;8967;47.984;7.842;2023-02-15T12:48:14;5.10;99.90
17697;DHT22;8967;47.984;7.842;2023-02-15T12:50:43;5.20;99.90
17697;DHT22;8967;47.984;7.842;2023-02-15T12:53:15;5.20;99.90
17697;DHT22;8967;47.984;7.842;2023-02-15T12:55:53;5.30;99.90
17697;DHT22;8967;47.984;7.842;2023-02-15T12:58:22;5.30;99.90
17697;DHT22;8967;47.984;7.842;2023-02-15T13:01:03;5.30;99.90
17697;DHT22;8967;47.984;7.842;2023-02-15T13:03:32;5.40;99.90
17697;DHT22;8967;47.984;7.842;2023-02-15T13:06:01;5.40;99.90
17697;DHT22;8967;47.984;7.842;2023-02-15T13:08:34;5.50;99.90
17697;DHT22;8967;47.984;7.842;2023-02-15T13:11:04;5.50;99.90
17697;DHT22;8967;47.984;7.842;2023-02-15T13:16:29;5.60;99.90
17697;DHT22;8967;47.984;7.842;2023-02-15T13:19:03;5.60;99.90
17697;DHT22;8967;47.984;7.842;2023-02-15T13:21:35;5.70;99.90
17697;DHT22;8967;47.984;7.842;2023-02-15T13:24:10;5.70;99.90
17697;DHT22;8967;47.984;7.842;2023-02-15T13:27:07;5.70;99.90
17697;DHT22;8967;47.984;7.842;2023-02-15T13:29:37;5.80;99.90
17697;DHT22;8967;47.984;7.842;2023-02-15T13:32:12;5.80;99.90
17697;DHT22;8967;47.984;7.842;2023-02-15T13:34:43;5.80;99.90
17697;DHT22;8967;47.984;7.842;2023-02-15T13:37:16;5.90;99.90
17697;DHT22;8967;47.984;7.842;2023-02-15T13:39:47;5.90;99.90
17697;DHT22;8967;47.984;7.842;2023-02-15T13:42:29;5.90;99.90
17697;DHT22;8967;47.984;7.842;2023-02-15T13:45:08;5.90;99.90
17697;DHT22;8967;47.984;7.842;2023-02-15T13:47:43;5.90;99.90
17697;DHT22;8967;47.984;7.842;2023-02-15T13:50:21;6.00;99.90
17697;DHT22;8967;47.984;7.842;2023-02-15T13:53:06;6.00;99.90
17697;DHT22;8967;47.984;7.842;2023-02-15T13:55:37;6.00;99.90
17697;DHT22;8967;47.984;7.842;2023-02-15T13:58:17;6.00;99.90
17697;DHT22;8967;47.984;7.842;2023-02-15T14:00:55;6.00;99.90
17697;DHT22;8967;47.984;7.842;2023-02-15T14:06:47;6.10;99.90
17697;DHT22;8967;47.984;7.842;2023-02-15T14:09:25;6.10;99.90
17697;DHT22;8967;47.984;7.842;2023-02-15T14:12:01;6.10;99.90
17697;DHT22;8967;47.984;7.842;2023-02-15T14:14:58;6.20;99.90
17697;DHT22;8967;47.984;7.842;2023-02-15T14:17:39;6.20;99.90
17697;DHT22;8967;47.984;7.842;2023-02-15T14:20:19;6.30;99.90
17697;DHT22;8967;47.984;7.842;2023-02-15T14:22:54;6.30;99.90
17697;DHT22;8967;47.984;7.842;2023-02-15T14:25:27;6.30;99.90
17697;DHT22;8967;47.984;7.842;2023-02-15T14:28:02;6.40;99.90
17697;DHT22;8967;47.984;7.842;2023-02-15T14:30:34;6.40;99.90
17697;DHT22;8967;47.984;7.842;2023-02-15T14:33:06;6.40;99.90
17697;DHT22;8967;47.984;7.842;2023-02-15T14:35:37;6.40;99.90
17697;DHT22;8967;47.984;7.842;2023-02-15T14:38:13;6.40;99.90
17697;DHT22;8967;47.984;7.842;2023-02-15T14:40:46;6.50;99.90
17697;DHT22;8967;47.984;7.842;2023-02-15T14:43:47;6.50;99.90
17697;DHT22;8967;47.984;7.842;2023-02-15T14:46:22;6.50;99.90
17697;DHT22;8967;47.984;7.842;2023-02-15T14:48:52;6.60;99.90
17697;DHT22;8967;47.984;7.842;2023-02-15T14:51:54;6.60;99.90
17697;DHT22;8967;47.984;7.842;2023-02-15T14:54:54;6.60;99.90
17697;DHT22;8967;47.984;7.842;2023-02-15T14:57:33;6.60;99.90
17697;DHT22;8967;47.984;7.842;2023-02-15T15:00:02;6.70;99.90
17697;DHT22;8967;47.984;7.842;2023-02-15T15:02:45;6.70;99.90
17697;DHT22;8967;47.984;7.842;2023-02-15T15:05:19;6.70;99.90
17697;DHT22;8967;47.984;7.842;2023-02-15T15:07:49;6.70;99.90
17697;DHT22;8967;47.984;7.842;2023-02-15T15:10:46;6.80;99.90
17697;DHT22;8967;47.984;7.842;2023-02-15T15:16:45;6.80;99.90
17697;DHT22;8967;47.984;7.842;2023-02-15T15:22:22;6.90;99.90
17697;DHT22;8967;47.984;7.842;2023-02-15T15:24:52;6.90;99.90
17697;DHT22;8967;47.984;7.842;2023-02-15T15:27:48;7.00;99.90
17697;DHT22;8967;47.984;7.842;2023-02-15T15:46:07;7.10;99.90
17697;DHT22;8967;47.984;7.842;2023-02-15T15:48:40;7.10;99.90
17697;DHT22;8967;47.984;7.842;2023-02-15T15:51:12;7.00;99.90
17697;DHT22;8967;47.984;7.842;2023-02-15T15:53:42;7.10;99.90
17697;DHT22;8967;47.984;7.842;2023-02-15T15:56:14;7.10;99.90
17697;DHT22;8967;47.984;7.842;2023-02-15T15:58:47;7.00;99.90
17697;DHT22;8967;47.984;7.842;2023-02-15T16:01:15;7.00;99.90
17697;DHT22;8967;47.984;7.842;2023-02-15T16:03:49;7.00;99.90
17697;DHT22;8967;47.984;7.842;2023-02-15T16:06:30;7.00;99.90
17697;DHT22;8967;47.984;7.842;2023-02-15T16:09:08;7.00;99.90
17697;DHT22;8967;47.984;7.842;2023-02-15T16:11:35;6.90;99.90
17697;DHT22;8967;47.984;7.842;2023-02-15T16:14:16;7.00;99.90
17697;DHT22;8967;47.984;7.842;2023-02-15T16:16:54;6.90;99.90
17697;DHT22;8967;47.984;7.842;2023-02-15T16:19:26;6.90;99.90
17697;DHT22;8967;47.984;7.842;2023-02-15T16:21:55;6.90;99.90
17697;DHT22;8967;47.984;7.842;2023-02-15T16:24:46;6.80;99.90
17697;DHT22;8967;47.984;7.842;2023-02-15T16:27:33;6.80;99.90
17697;DHT22;8967;47.984;7.842;2023-02-15T16:30:20;6.80;99.90
17697;DHT22;8967;47.984;7.842;2023-02-15T16:32:48;6.80;99.90
17697;DHT22;8967;47.984;7.842;2023-02-15T16:35:17;6.70;99.90
17697;DHT22;8967;47.984;7.842;2023-02-15T16:37:44;6.70;99.90
17697;DHT22;8967;47.984;7.842;2023-02-15T16:40:38;6.70;99.90
17697;DHT22;8967;47.984;7.842;2023-02-15T16:43:14;6.70;99.90
17697;DHT22;8967;47.984;7.842;2023-02-15T16:45:43;6.60;99.90
17697;DHT22;8967;47.984;7.842;2023-02-15T16:48:17;6.60;99.90
17697;DHT22;8967;47.984;7.842;2023-02-15T16:50:49;6.60;99.90
17697;DHT22;8967;47.984;7.842;2023-02-15T16:53:21;6.50;99.90
17697;DHT22;8967;47.984;7.842;2023-02-15T16:55:51;6.50;99.90
17697;DHT22;8967;47.984;7.842;2023-02-15T16:58:27;6.50;99.90
17697;DHT22;8967;47.984;7.842;2023-02-15T17:01:00;6.50;99.90
17697;DHT22;8967;47.984;7.842;2023-02-15T17:03:28;6.40;99.90
17697;DHT22;8967;47.984;7.842;2023-02-15T17:05:56;6.40;99.90
17697;DHT22;8967;47.984;7.842;2023-02-15T17:08:27;6.30;99.90
17697;DHT22;8967;47.984;7.842;2023-02-15T17:11:04;6.30;99.90
17697;DHT22;8967;47.984;7.842;2023-02-15T17:13:31;6.30;99.90
17697;DHT22;8967;47.984;7.842;2023-02-15T17:16:25;6.30;99.90
17697;DHT22;8967;47.984;7.842;2023-02-15T17:18:54;6.20;99.90